Date,TemperatureHighF,TemperatureAvgF,TemperatureLowF,DewpointHighF,DewpointAvgF,DewpointLowF,HumidityHigh,HumidityAvg,HumidityLow,PressureMaxIn,PressureMinIn,WindSpeedMaxMPH,WindSpeedAvgMPH,GustSpeedMaxMPH,PrecipitationSumIn
2013-1-1,35.1,30.9,23.4,35.1,30.9,23.4,100,100,100,29.26,29.15,8,1,8,0.00
2013-1-2,36.0,23.2,14.2,36.0,23.2,14.2,100,100,100,29.38,29.26,5,0,5,0.00
2013-1-3,38.7,25.1,14.4,38.7,25.1,14.4,100,100,100,29.44,29.32,15,2,15,0.00
2013-1-4,39.4,31.6,27.9,39.4,31.6,27.9,100,100,100,29.47,29.41,13,5,13,0.00
2013-1-5,44.6,32.4,23.2,44.2,32.4,23.2,100,100,100,29.47,29.29,9,2,9,0.16
2013-1-6,38.7,33.3,26.6,38.7,33.3,26.6,100,100,100,29.47,29.18,15,5,15,0.04
2013-1-7,43.5,31.2,21.4,43.5,31.2,21.4,100,100,100,29.59,29.38,9,1,9,0.00
2013-1-8,44.8,36.8,27.3,44.8,36.8,27.1,100,100,100,29.41,29.35,6,0,6,0.00
2013-1-9,56.7,45.8,36.9,55.8,45.7,36.9,100,100,97,29.65,29.35,11,3,11,0.04
2013-1-10,45.3,38.8,32.9,45.3,38.8,32.9,100,100,100,29.65,29.23,11,2,11,0.08
2013-1-11,63.0,54.6,45.3,60.8,54.1,45.1,100,98,87,29.23,29.03,17,4,17,0.43
2013-1-12,66.0,60.5,52.7,66.0,60.5,52.7,100,100,100,29.18,28.97,17,4,17,0.00
2013-1-13,66.0,54.0,34.3,66.0,54.0,34.3,100,100,100,29.29,28.91,17,5,17,0.94
2013-1-14,34.3,26.0,22.3,34.2,26.0,22.3,100,100,100,29.56,29.29,8,3,8,0.00
2013-1-15,34.3,27.6,21.7,34.2,27.6,21.7,100,100,100,29.50,29.23,11,3,11,0.00
2013-1-16,36.7,32.4,30.0,36.7,32.4,30.0,100,100,100,29.23,29.12,9,2,9,0.00
2013-1-17,44.8,33.4,26.1,44.6,33.4,26.1,100,100,100,29.50,29.23,8,2,8,0.00
2013-1-18,42.3,30.0,16.5,42.1,30.0,16.3,100,100,100,29.65,29.38,15,3,15,0.00
2013-1-19,56.7,45.5,36.5,55.6,45.4,36.5,100,100,97,29.38,29.06,22,8,23,0.00
2013-1-20,46.8,34.2,25.2,46.8,34.2,25.2,100,100,100,29.38,29.09,18,4,18,0.00
2013-1-21,27.9,20.7,10.8,27.1,20.7,10.8,100,100,100,29.38,29.23,22,4,22,0.00
2013-1-22,20.7,12.4,5.2,20.3,12.4,5.0,100,100,100,29.50,29.35,12,4,12,0.00
2013-1-23,21.9,17.3,9.5,21.9,17.3,9.5,100,100,100,29.47,29.21,10,2,10,0.00
2013-1-24,25.9,19.3,12.7,25.5,19.3,12.7,100,100,100,29.68,29.21,13,3,13,0.00
2013-1-25,25.5,22.3,19.2,25.5,22.3,19.2,100,100,100,29.56,29.18,9,2,9,0.00
2013-1-26,36.5,24.9,18.7,36.5,24.9,18.7,100,100,100,29.56,29.26,6,2,6,0.00
2013-1-27,38.7,29.2,19.4,38.7,29.2,19.4,100,100,100,29.56,29.29,8,2,8,0.20
2013-1-28,53.8,47.9,36.3,53.8,47.9,36.1,100,100,100,29.29,29.18,14,5,14,0.12
2013-1-29,64.6,59.1,52.5,64.6,59.1,52.5,100,100,100,29.21,28.76,18,7,18,0.00
2013-1-30,66.6,52.6,32.2,66.4,52.6,32.0,100,100,100,28.76,28.47,22,7,22,0.83
2013-1-31,32.4,26.3,15.6,32.4,26.3,15.4,100,100,100,29.18,28.73,18,7,18,0.00
2013-2-1,20.3,11.9,5.5,20.3,11.9,5.5,100,100,100,29.53,29.18,13,4,13,0.00
2013-2-2,33.6,23.7,12.0,33.6,23.7,12.0,100,100,100,29.44,29.12,10,3,10,0.00
2013-2-3,27.0,21.6,16.3,27.0,21.6,16.3,100,100,100,29.26,29.06,11,3,11,0.00
2013-2-4,34.5,27.5,16.9,34.5,27.5,16.9,100,100,100,29.23,28.97,13,2,13,0.00
2013-2-5,37.4,33.4,27.0,37.4,33.4,27.0,100,100,100,29.15,28.97,10,1,10,0.08
2013-2-6,37.6,33.4,27.0,37.6,33.4,27.0,100,100,100,29.38,29.15,10,1,10,0.00
2013-2-7,64.4,44.8,30.2,60.5,44.2,30.2,100,98,87,29.32,28.97,15,2,15,0.00
2013-2-8,52.7,36.9,30.6,52.7,36.9,30.6,100,100,100,29.44,28.94,13,5,13,0.08
2013-2-9,45.9,32.4,19.2,45.9,32.4,19.2,100,100,97,29.56,29.35,6,2,6,0.00
2013-2-10,55.8,43.0,30.7,54.9,42.8,30.6,100,100,97,29.35,28.94,17,4,17,0.00
2013-2-11,52.5,47.0,37.8,52.5,47.0,37.8,100,100,100,29.18,28.94,21,8,21,0.00
2013-2-12,52.9,39.2,27.3,52.9,39.2,27.3,100,100,100,29.26,29.06,10,2,10,0.00
2013-2-13,39.7,32.5,28.8,39.7,32.5,28.8,100,100,100,29.06,28.94,9,1,9,0.04
2013-2-14,48.6,42.8,36.9,48.6,42.8,36.7,100,100,100,29.15,29.03,9,3,9,0.00
2013-2-15,42.8,33.1,23.5,42.8,33.1,23.5,100,100,100,29.29,29.12,11,2,11,0.00
2013-2-16,31.3,23.0,17.6,31.3,23.0,17.4,100,100,100,29.29,29.18,14,2,14,0.00
2013-2-17,37.4,22.5,10.9,37.4,22.5,10.8,100,100,100,29.35,29.23,9,1,9,0.00
2013-2-18,62.4,41.7,23.0,60.1,41.2,23.0,100,98,92,29.32,28.91,24,6,24,0.04
2013-2-19,45.0,32.3,23.4,45.0,32.3,23.4,100,100,100,29.23,28.82,17,2,17,0.20
2013-2-20,31.1,23.2,18.5,31.1,23.2,18.5,100,100,100,29.41,29.23,11,2,11,0.20
2013-2-21,36.1,26.1,19.0,36.1,26.1,19.0,100,100,100,29.47,29.18,14,3,14,0.20
2013-2-22,45.1,35.4,28.8,44.4,35.4,28.8,100,100,100,29.21,29.03,15,2,15,0.12
2013-2-23,47.5,36.5,30.4,47.5,36.5,30.4,100,100,100,29.15,29.03,8,2,8,0.04
2013-2-24,46.8,35.7,25.2,41.5,15.3,-4.1,100,55,20,29.29,29.09,8,2,8,0.00
2013-2-25,48.7,32.1,25.7,11.0,-1.0,-4.4,26,24,21,29.29,29.03,10,2,10,0.00
2013-2-26,48.7,39.9,34.2,33.8,16.0,0.7,56,39,22,29.03,28.64,9,3,10,0.79
2013-2-27,41.4,37.2,32.7,21.5,13.9,7.2,49,38,30,28.88,28.67,14,8,14,0.04
2013-2-28,35.8,33.7,32.0,15.7,10.9,6.0,45,38,32,29.09,28.85,0,0,0,0.04
2013-3-1,35.6,33.6,28.6,23.1,13.4,-0.4,63,44,28,29.18,29.09,0,0,0,0.04
2013-3-2,28.8,27.0,25.3,0.8,-3.0,-4.7,31,26,25,29.21,29.18,0,0,0,0.00
2013-3-3,34.0,27.2,21.0,1.5,-3.8,-7.9,31,25,22,29.23,29.18,0,0,0,0.00
2013-3-4,43.0,31.9,17.4,7.7,0.1,-8.6,42,26,21,29.29,29.15,6,1,6,0.00
2013-3-5,38.5,36.4,30.4,25.7,8.9,1.1,75,33,22,29.15,28.73,13,2,13,0.31
2013-3-6,33.1,30.2,27.9,23.7,12.4,5.0,77,50,31,29.38,28.79,9,3,9,0.00
2013-3-7,41.2,33.2,30.4,14.4,8.4,-0.4,51,37,23,29.50,29.38,6,0,6,0.20
2013-3-8,43.2,33.3,25.0,7.9,2.2,-2.2,34,26,21,29.50,29.50,8,1,8,0.20
2013-3-9,63.7,36.5,28.6,19.5,7.4,2.1,37,30,18,29.50,29.18,10,1,10,0.00
2013-3-10,70.7,56.6,52.3,23.6,15.7,13.5,21,20,17,29.18,29.03,15,5,15,0.04
2013-3-11,56.3,49.4,37.2,36.0,24.1,6.0,55,38,20,29.03,28.79,12,5,12,1.06
2013-3-12,48.7,37.5,32.0,15.7,6.3,0.8,50,27,21,29.15,29.03,10,4,10,1.06
2013-3-13,33.1,28.4,24.6,17.4,2.0,-6.9,54,32,23,29.35,29.15,13,2,232,1.06
2013-3-14,49.8,32.3,19.9,11.5,2.0,-4.3,43,28,21,29.47,29.29,12,2,12,0.00
2013-3-15,55.9,40.1,30.9,15.5,8.9,2.6,44,29,20,29.29,28.94,8,2,8,0.00
2013-3-16,61.2,46.5,36.9,27.6,22.8,11.8,52,40,19,29.15,28.79,12,3,12,0.24
2013-3-17,36.9,35.2,33.3,11.8,8.5,6.0,35,32,30,29.26,29.15,10,4,10,0.24
2013-3-18,51.8,40.5,34.0,30.4,19.9,7.7,61,45,26,29.26,28.76,11,4,11,1.02
2013-3-19,43.9,37.2,27.7,13.8,4.7,-4.5,38,25,21,29.24,29.00,17,6,231,0.00
2013-3-20,33.8,28.6,22.5,-0.2,-4.4,-8.2,25,23,22,29.24,29.12,13,3,13,0.00
2013-3-21,33.4,25.9,20.3,-0.4,-6.0,-9.9,25,24,23,29.18,29.09,8,2,8,0.00
2013-3-22,46.6,33.9,19.2,9.8,-0.0,-10.8,27,23,21,29.18,29.15,6,4,6,0.00
2013-3-23,55.0,38.4,30.2,14.7,2.8,-3.1,23,22,20,29.21,29.06,9,4,9,0.00
2013-3-24,38.1,35.2,32.2,20.1,7.4,-1.0,58,33,21,29.06,28.59,13,3,13,0.04
2013-3-25,34.9,33.0,30.0,20.1,11.5,5.8,58,42,30,29.09,28.59,6,1,6,0.00
2013-3-26,36.7,33.9,31.3,12.1,7.0,0.3,44,33,24,29.35,29.09,6,3,6,0.20
2013-3-27,42.6,32.7,27.7,7.3,3.1,-1.0,38,28,21,29.44,29.35,8,3,8,0.00
2013-3-28,60.1,40.0,27.5,17.7,4.5,-5.4,26,22,19,29.47,29.41,8,2,8,0.00
2013-3-29,61.9,44.7,27.9,19.2,8.8,-1.7,33,23,19,29.44,29.35,8,1,8,0.00
2013-3-30,68.9,50.7,33.4,21.9,12.1,1.7,28,21,17,29.38,29.12,14,2,14,0.00
2013-3-31,63.3,50.4,45.3,29.9,17.3,10.1,48,28,18,29.12,28.94,18,2,18,0.08
2013-4-1,51.6,43.0,36.9,13.0,6.8,1.5,24,22,21,29.26,28.94,9,2,9,0.00
2013-4-2,56.1,39.9,22.6,15.3,3.7,-8.2,27,22,20,29.38,29.26,11,1,11,0.00
2013-4-3,53.6,36.2,25.5,13.5,1.5,-6.2,24,23,20,29.53,29.38,9,1,9,0.00
2013-4-4,65.8,48.6,32.4,21.2,9.7,-1.3,23,20,18,29.44,29.12,7,1,7,0.00
2013-4-5,67.1,53.1,36.1,21.3,13.0,0.0,22,20,17,29.18,29.12,6,1,6,0.00
2013-4-6,71.1,52.8,43.2,24.1,13.4,7.9,23,20,17,29.32,29.03,14,3,14,0.00
2013-4-7,76.5,64.2,58.1,25.8,20.4,16.1,22,19,15,29.15,29.00,17,6,17,0.12
2013-4-8,75.0,65.3,55.0,29.3,22.2,17.6,37,20,16,29.15,29.03,9,4,9,0.12
2013-4-9,84.7,71.1,58.8,29.8,23.3,17.0,22,17,13,29.21,29.09,16,5,16,0.00
2013-4-10,84.0,73.2,63.9,29.8,24.5,20.3,21,16,14,29.12,29.06,18,6,18,0.00
2013-4-11,67.6,62.8,58.3,49.1,33.9,20.6,70,37,17,29.09,28.70,8,1,8,1.14
2013-4-12,58.3,45.9,40.6,49.1,16.2,5.8,72,32,21,29.06,28.70,16,5,16,1.06
2013-4-13,57.9,47.1,37.4,16.1,11.1,5.3,30,23,19,29.15,29.06,13,5,13,1.06
2013-4-14,76.5,56.3,39.0,25.7,15.9,5.1,26,21,15,29.18,29.00,8,2,8,1.06
2013-4-15,72.3,61.3,56.3,24.2,18.8,15.3,27,19,16,29.12,29.03,9,5,9,1.06
2013-4-16,79.9,67.1,57.6,49.6,31.6,23.1,71,30,15,29.32,29.12,11,3,11,1.06
2013-4-17,86.2,66.6,55.6,52.0,38.0,26.5,81,43,16,29.32,29.12,13,2,232,1.06
2013-4-18,84.7,73.7,63.9,33.6,27.5,23.9,24,18,13,29.12,28.73,24,7,24,1.06
2013-4-19,72.9,48.7,37.4,35.5,17.1,3.8,53,30,16,29.12,28.61,22,7,22,0.55
2013-4-20,52.5,42.8,34.9,14.2,9.0,1.0,40,25,21,29.50,29.12,15,3,15,0.55
2013-4-21,69.3,46.8,31.3,22.2,9.2,-2.2,25,21,17,29.62,29.47,12,2,12,0.00
2013-4-22,80.8,51.7,36.7,27.2,11.7,1.0,24,20,14,29.47,29.23,8,1,8,0.00
2013-4-23,73.0,62.7,51.4,24.2,19.0,12.8,21,18,16,29.23,29.03,11,2,11,0.00
2013-4-24,64.4,55.1,35.1,31.9,18.9,7.0,59,26,18,29.32,28.91,13,4,13,0.47
2013-4-25,66.9,44.2,33.3,21.2,12.6,3.9,50,29,17,29.47,29.32,15,5,15,0.47
2013-4-26,65.5,52.3,34.3,20.9,13.2,2.3,29,21,18,29.50,29.44,8,6,8,0.47
2013-4-27,67.8,53.0,43.9,23.2,13.7,8.1,28,21,17,29.44,29.12,11,2,11,0.00
2013-4-28,68.7,58.6,54.3,62.4,36.7,23.0,100,48,22,29.12,28.94,13,2,13,0.28
2013-4-29,67.5,59.2,54.7,59.9,55.7,49.5,100,89,64,29.09,29.00,6,0,6,0.08
2013-4-30,85.8,67.3,50.2,68.3,58.0,50.2,100,75,56,29.15,29.06,10,2,10,0.00
2013-5-1,89.6,68.9,55.9,73.9,57.5,49.2,88,68,56,29.26,29.15,8,2,8,0.00
2013-5-2,78.8,70.1,60.4,63.8,57.0,49.8,68,63,60,29.26,29.18,6,2,6,0.00
2013-5-3,78.3,69.1,60.4,63.2,56.3,49.8,68,64,60,29.18,29.03,12,3,12,0.00
2013-5-4,76.5,64.7,55.6,61.6,53.8,47.8,88,68,60,29.06,29.00,10,3,10,0.00
2013-5-5,58.6,53.8,50.7,54.7,51.5,46.8,100,93,68,29.06,28.97,7,1,7,0.94
2013-5-6,66.4,57.6,52.5,57.7,54.2,51.6,100,89,70,29.03,28.94,10,2,10,0.75
2013-5-7,79.2,60.8,56.3,63.1,56.2,54.2,100,86,60,29.03,28.97,8,1,8,0.43
2013-5-8,81.7,63.4,53.1,65.5,58.2,52.6,100,86,58,29.06,29.00,8,1,8,0.00
2013-5-9,81.5,67.4,57.6,65.3,59.8,53.7,100,79,58,29.09,29.00,10,2,10,0.04
2013-5-10,71.4,64.0,61.3,64.4,61.7,55.0,100,93,64,29.00,28.88,12,1,12,1.14
2013-5-11,68.0,52.0,40.8,54.7,49.1,39.9,100,91,64,29.06,28.94,11,2,11,0.00
2013-5-12,62.6,47.2,37.8,51.0,42.2,37.8,100,84,68,29.15,29.06,10,0,10,0.00
2013-5-13,68.9,52.1,35.2,56.2,43.8,35.2,100,74,64,29.21,29.12,8,2,8,0.00
2013-5-14,87.1,64.9,47.7,69.5,53.1,39.8,74,66,56,29.18,28.88,11,3,11,0.00
2013-5-15,92.7,78.0,66.7,75.7,63.1,54.7,70,60,54,28.94,28.88,13,6,13,0.00
2013-5-16,75.9,69.1,62.2,65.4,59.5,53.7,100,73,60,29.00,28.91,10,2,10,0.00
2013-5-17,87.3,70.5,60.8,72.7,64.5,56.4,100,84,56,29.09,29.00,10,1,10,0.16
2013-5-18,83.3,71.0,63.7,68.9,65.7,63.0,100,85,62,29.09,29.03,6,0,6,0.16
2013-5-19,91.8,75.0,64.0,74.9,67.1,62.0,100,79,58,29.06,28.94,5,0,5,0.16
2013-5-20,92.7,78.1,68.0,75.7,69.1,63.1,100,76,58,29.06,28.91,10,2,10,0.16
2013-5-21,90.5,74.8,65.3,74.7,63.2,58.4,80,68,58,28.97,28.91,13,3,13,0.16
2013-5-22,82.2,68.6,64.4,68.8,61.1,58.2,100,77,60,28.94,28.79,13,2,13,0.43
2013-5-23,71.8,62.2,50.5,65.1,60.3,45.3,100,94,64,29.12,28.82,14,3,14,0.16
2013-5-24,76.3,58.5,47.8,61.4,49.3,42.9,90,72,60,29.32,29.12,11,2,11,0.16
2013-5-25,68.7,58.1,43.3,55.5,49.1,41.8,100,73,64,29.35,29.23,6,0,6,0.00
2013-5-26,75.0,62.9,53.6,61.1,52.5,45.5,86,69,62,29.29,29.18,6,0,6,0.16
2013-5-27,87.6,73.6,61.0,70.0,59.7,50.4,68,62,56,29.21,28.97,10,2,10,0.16
2013-5-28,85.5,76.8,67.1,68.0,62.7,56.1,74,62,56,29.03,28.97,12,3,231,0.16
2013-5-29,92.7,77.9,68.4,75.7,63.5,58.1,70,61,54,29.09,28.97,10,4,10,0.16
2013-5-30,77.0,72.1,70.5,62.0,60.5,57.9,68,67,60,29.09,29.09,6,2,6,0.00
2013-6-1,83.1,78.5,70.3,68.8,66.5,63.4,94,67,62,28.94,28.82,17,5,17,0.00
2013-6-2,81.9,71.2,65.5,65.7,60.7,55.7,96,70,58,28.97,28.85,11,3,11,0.00
2013-6-3,80.4,66.3,53.6,65.3,55.3,46.9,82,68,60,29.06,28.97,8,1,8,0.00
2013-6-4,84.7,60.6,49.6,67.5,53.2,45.6,100,79,58,29.15,29.06,8,1,8,0.00
2013-6-6,68.0,64.3,62.2,37.4,35.0,29.7,36,34,24,28.85,28.82,7,1,7,0.00
2013-6-7,81.1,67.4,59.4,38.2,28.0,20.3,43,24,14,28.91,28.82,8,1,8,0.00
2013-6-8,80.1,69.3,58.6,36.6,25.7,22.5,33,20,15,29.03,28.91,8,1,8,0.00
2013-6-9,84.9,73.4,63.9,75.9,57.9,25.7,100,65,15,29.09,28.91,10,2,11,0.16
2013-6-10,83.5,70.4,64.2,71.4,66.0,60.4,100,87,56,28.88,28.82,17,2,17,0.20
2013-6-11,91.6,74.9,62.8,75.2,67.6,62.8,100,80,56,29.00,28.88,9,2,9,0.00
2013-6-12,94.6,81.1,71.2,76.5,71.2,67.0,100,73,56,28.97,28.73,12,3,12,0.00
2013-6-13,84.4,74.4,62.6,72.1,65.7,53.6,100,75,56,28.94,28.64,17,4,18,0.47
2013-6-14,89.4,71.6,54.5,73.7,61.0,54.5,100,71,52,29.06,28.94,8,1,8,0.00
2013-6-15,89.8,75.9,57.6,74.1,63.8,57.6,100,68,52,29.12,29.06,11,2,11,0.00
2013-6-16,79.2,71.4,66.4,71.4,66.4,61.9,100,84,68,29.06,28.97,11,2,11,0.04
2013-6-17,95.0,77.5,66.6,76.8,69.5,63.3,100,79,52,29.00,28.91,10,1,10,0.00
2013-6-18,91.2,72.8,66.4,75.4,67.9,60.2,100,86,60,29.00,28.88,8,0,8,0.00
2013-6-19,91.6,71.7,58.6,69.1,61.6,54.5,100,73,48,29.12,29.00,6,1,6,0.00
2013-6-20,93.9,75.0,61.2,75.8,62.4,53.5,96,66,48,29.21,29.12,4,0,4,0.00
2013-6-21,93.4,78.1,61.9,75.4,65.4,56.7,100,67,52,29.21,29.09,9,1,9,0.00
2013-6-22,92.8,77.0,68.5,75.1,69.8,64.5,100,81,56,29.18,29.09,14,1,14,0.00
2013-6-23,92.8,77.4,65.3,75.4,69.6,62.4,100,79,52,29.15,29.06,15,2,22,0.00
2013-6-24,92.1,76.3,68.4,75.4,69.9,66.1,100,83,56,29.12,29.03,10,0,10,0.00
2013-6-25,95.0,80.4,68.0,76.8,71.5,67.5,100,77,56,29.06,28.88,14,3,14,0.00
2013-6-26,89.6,74.0,66.6,75.4,69.6,63.3,100,88,60,28.94,28.76,10,2,11,0.79
2013-6-27,89.2,71.9,66.9,74.3,69.1,66.9,100,92,60,28.79,28.70,11,1,11,0.00
2013-6-28,89.2,74.8,63.9,74.1,69.5,59.1,100,86,52,28.70,28.58,15,3,15,0.08
2013-6-29,81.3,69.8,61.9,73.9,67.1,61.9,100,92,68,28.61,28.56,9,1,9,1.02
2013-6-30,87.1,72.6,64.4,73.4,67.1,60.9,100,84,52,28.79,28.61,8,1,8,0.00
2013-7-1,69.1,66.0,63.5,69.1,66.0,63.5,100,100,100,28.85,28.76,7,1,7,0.55
2013-7-2,86.9,73.0,65.1,73.1,68.0,64.2,100,86,64,28.94,28.82,10,1,10,0.00
2013-7-3,84.6,75.3,67.1,73.0,69.6,66.6,100,84,64,29.00,28.91,8,1,8,0.00
2013-7-4,71.2,69.2,68.0,71.2,69.2,68.0,100,100,100,29.03,28.94,6,0,6,0.83
2013-7-5,78.8,70.5,65.3,73.8,69.2,65.3,100,96,80,29.00,28.94,6,0,6,0.04
2013-7-6,79.0,70.3,66.2,76.7,69.8,66.2,100,98,84,28.94,28.88,13,1,13,1.14
2013-7-7,89.2,73.1,64.2,74.5,68.1,63.8,100,86,60,28.94,28.85,10,1,10,0.00
2013-7-8,86.5,76.9,68.2,73.7,70.2,67.4,100,81,64,28.94,28.85,10,2,10,0.00
2013-7-9,91.4,81.8,74.3,75.9,71.3,67.9,88,71,56,28.88,28.79,12,2,12,0.00
2013-7-10,93.7,81.0,68.7,78.7,73.2,66.6,100,79,56,28.79,28.64,14,3,14,0.35
2013-7-11,86.4,73.0,62.4,72.6,66.8,55.3,100,82,56,28.82,28.70,10,1,11,0.00
2013-7-12,87.3,71.5,58.6,67.5,62.0,58.6,100,74,52,28.88,28.79,10,1,10,0.00
2013-7-13,87.8,74.7,65.7,73.9,65.3,60.2,92,73,52,28.88,28.82,10,1,10,0.00
2013-7-14,99.7,80.4,67.8,78.8,72.2,63.8,100,79,52,28.97,28.88,17,1,17,0.00
2013-7-15,97.9,82.9,72.7,78.4,73.3,66.4,100,76,52,29.06,28.97,6,0,6,0.00
2013-7-16,98.1,85.2,70.9,80.1,74.1,66.1,100,72,52,29.06,28.97,8,0,8,0.00
2013-7-17,96.4,83.4,72.5,79.7,74.0,69.2,100,76,56,29.03,28.91,7,0,7,0.00
2013-7-18,100.2,84.4,71.8,79.3,73.9,67.4,100,73,52,28.91,28.73,8,0,8,0.00
2013-7-19,93.7,82.4,72.9,81.3,74.2,66.1,100,78,56,28.76,28.61,10,2,10,0.08
2013-7-20,91.8,77.9,67.6,75.4,71.9,63.8,100,84,56,28.64,28.56,17,3,18,0.20
2013-7-21,89.8,78.1,67.8,74.3,70.3,65.0,100,79,60,28.67,28.56,5,0,5,0.00
2013-7-22,87.6,73.0,68.7,75.9,71.4,67.5,100,96,64,28.59,28.44,6,0,6,0.31
2013-7-23,70.2,69.2,68.4,70.2,69.2,68.4,100,100,100,28.53,28.50,4,0,4,0.00
2013-7-24,83.1,70.4,57.4,70.6,62.9,57.2,100,78,60,28.67,28.56,8,1,11,0.00
2013-7-25,87.4,67.6,55.9,67.7,60.2,55.3,100,79,52,28.76,28.64,6,1,6,0.00
2013-7-26,87.4,72.7,56.8,67.7,62.5,56.8,100,73,52,28.76,28.61,10,1,10,0.00
2013-7-27,82.8,68.0,61.3,70.4,64.2,58.1,100,89,60,28.61,28.50,10,2,10,0.16
2013-7-28,77.4,64.7,53.1,62.4,57.3,51.6,100,79,60,28.70,28.56,10,2,10,0.16
2013-7-29,84.0,67.9,53.8,66.7,59.4,50.9,100,77,56,28.82,28.67,10,1,10,0.16
2013-7-30,84.2,70.4,57.4,68.4,61.5,57.4,100,76,52,28.85,28.73,6,0,6,0.16
2013-7-31,88.3,70.8,64.8,73.9,66.8,61.9,100,88,60,28.73,28.59,8,1,11,0.00
2013-8-1,90.1,74.5,66.0,74.4,66.3,55.3,100,78,52,28.64,28.56,9,1,10,0.04
2013-8-2,88.7,74.9,58.5,73.9,64.1,58.5,100,71,52,28.61,28.59,14,2,14,0.04
2013-8-3,89.6,72.8,65.7,74.1,67.4,58.8,100,84,60,28.64,28.56,9,1,9,0.04
2013-8-4,88.5,69.8,56.7,68.5,60.8,53.5,100,75,52,28.73,28.64,10,2,10,0.00
2013-8-5,87.4,71.0,55.2,67.7,61.1,55.2,100,74,52,28.70,28.56,8,0,8,0.00
2013-8-6,90.3,75.2,66.7,74.6,63.7,55.8,100,69,52,28.56,28.53,8,2,8,0.00
2013-8-7,88.3,76.9,69.8,75.8,71.8,69.0,100,86,60,28.53,28.44,10,1,10,0.00
2013-8-8,90.5,75.4,68.0,79.2,72.5,68.0,100,92,60,28.53,28.47,8,1,8,0.67
2013-8-9,86.2,74.2,68.4,77.0,71.8,68.4,100,93,64,28.59,28.47,9,0,9,0.67
2013-8-10,94.3,78.1,68.2,76.3,71.4,68.0,100,82,56,28.64,28.56,8,0,8,0.00
2013-8-11,89.8,77.5,67.3,79.3,71.1,65.4,100,83,60,28.61,28.56,7,1,9,0.00
2013-8-12,89.8,75.2,64.0,76.7,68.7,64.0,100,82,60,28.61,28.41,10,2,10,0.24
2013-8-13,81.1,70.1,56.5,71.4,63.2,51.3,100,80,60,17.72,17.72,10,1,10,0.00
2013-8-14,82.0,63.2,50.7,65.3,56.3,49.7,100,80,56,17.72,17.72,8,1,8,0.00
2013-8-15,87.4,65.1,49.8,67.7,57.7,49.8,100,79,52,17.72,17.72,6,1,6,0.00
2013-8-16,87.3,69.0,54.1,67.5,59.7,53.5,100,74,52,17.72,17.72,8,1,8,0.00
2013-8-17,62.2,60.7,60.3,59.8,58.6,55.9,96,93,84,17.72,17.72,0,0,0,0.00
2013-8-20,75.6,73.8,72.9,65.2,63.8,60.4,76,71,60,29.29,29.29,6,0,6,0.00
2013-8-21,98.4,76.5,67.6,78.4,69.5,63.3,100,80,52,29.32,29.23,8,1,8,0.00
2013-8-22,88.7,75.0,67.5,75.9,70.3,67.5,100,87,60,29.29,29.21,9,1,9,0.00
2013-8-23,94.8,73.9,64.8,76.7,68.2,62.4,100,84,56,29.32,29.21,7,0,7,0.08
2013-8-24,99.1,77.1,59.5,78.4,66.4,58.8,100,72,48,29.41,29.32,8,1,8,0.00
2013-8-25,99.0,76.8,59.5,78.4,65.3,57.4,100,70,48,29.50,29.38,8,1,8,0.00
2013-8-26,92.1,77.7,66.2,75.4,67.6,56.9,100,72,56,29.41,29.26,10,1,10,0.00
2013-8-27,95.9,80.6,70.7,77.7,72.9,70.2,100,79,56,29.26,29.15,11,2,11,0.00
2013-8-28,96.6,82.9,73.2,78.4,73.8,69.0,100,76,56,29.15,29.06,7,3,7,0.00
2013-8-29,98.2,78.4,69.4,78.2,71.5,65.7,100,81,52,29.21,29.15,8,1,10,0.00
2013-8-30,98.2,80.9,66.0,78.4,71.0,63.1,100,74,52,29.18,29.03,10,1,10,0.00
2013-8-31,96.4,78.0,67.6,79.5,71.4,65.6,100,83,56,29.09,28.91,13,2,13,0.51
2013-9-1,89.6,75.8,66.7,74.3,70.1,66.7,100,85,60,29.03,28.94,9,1,10,0.00
2013-9-2,89.2,80.3,70.3,76.5,72.1,69.0,100,78,60,29.03,28.97,10,3,10,0.00
2013-9-3,85.6,67.3,57.2,66.2,60.6,57.2,100,82,52,29.21,29.12,8,1,9,0.00
2013-9-4,93.0,75.9,54.3,75.4,63.6,54.3,100,68,48,29.32,29.23,8,1,8,0.00
2013-9-5,84.2,67.6,59.4,70.6,61.6,55.2,100,83,52,29.35,29.29,7,0,8,0.00
2013-9-6,83.3,70.0,55.2,66.0,58.4,51.9,92,67,56,29.38,29.26,6,1,6,0.00
2013-9-7,93.2,69.6,56.5,75.2,61.6,56.1,100,79,52,29.26,29.15,10,1,11,0.00
2013-9-8,101.5,81.5,68.2,79.3,71.4,64.7,100,74,48,29.18,29.12,8,0,8,0.00
2013-9-9,98.2,85.9,69.3,75.9,64.3,31.9,100,57,13,29.23,29.15,14,3,14,0.00
2013-9-10,97.9,86.2,73.2,82.7,73.3,63.2,73,66,62,29.32,29.18,12,3,12,0.00
2013-9-11,98.1,83.4,71.4,82.8,71.1,62.8,79,67,62,29.32,29.18,10,2,10,0.00
2013-9-12,86.0,73.9,63.9,72.9,66.2,55.9,100,77,65,29.21,29.06,10,2,10,0.12
2013-9-13,68.0,60.0,51.3,56.2,50.8,41.8,81,72,66,29.24,29.12,11,2,11,0.00
2013-9-14,84.0,57.1,44.2,69.9,48.2,39.9,89,73,63,29.32,29.23,8,1,8,0.00
2013-9-15,84.6,65.7,47.3,70.1,54.9,40.5,86,68,62,29.29,29.20,13,1,13,0.00
2013-9-16,83.3,67.4,59.2,69.4,57.5,51.2,85,71,63,29.38,29.29,9,2,9,0.00
2013-9-17,90.1,69.9,58.8,70.1,53.4,27.0,59,56,14,29.35,29.32,10,1,10,0.00
2013-9-18,83.1,67.9,58.5,64.4,54.2,44.4,79,62,54,29.32,29.23,8,1,9,0.00
2013-9-19,87.6,72.2,65.8,70.0,62.0,57.9,100,71,56,29.26,29.15,11,1,11,0.20
2013-9-20,90.9,73.4,66.6,72.5,64.0,58.3,100,74,55,29.18,28.97,13,2,13,1.81
2013-9-21,79.3,64.8,54.5,66.7,56.2,42.3,100,76,55,29.06,28.88,8,1,8,0.63
2013-9-22,80.4,58.3,46.4,62.1,45.7,38.5,82,63,55,29.18,29.06,10,1,10,0.00
2013-9-23,81.9,58.6,43.7,63.6,46.1,37.3,80,64,54,29.26,29.18,9,1,9,0.00
2013-9-24,86.0,62.6,45.7,66.9,49.5,39.5,80,63,53,29.23,29.09,7,1,7,0.00
2013-9-25,86.9,65.1,54.7,77.2,59.1,22.6,92,82,24,29.09,29.06,5,0,6,0.00
2013-9-26,88.3,66.8,49.3,78.6,61.1,49.3,100,83,73,29.23,29.09,5,2,5,0.00
2013-9-27,90.7,70.7,51.6,80.4,63.3,48.5,92,78,72,29.32,29.23,5,0,6,0.00
2013-9-28,88.2,67.5,52.3,78.4,61.3,50.2,100,81,73,29.35,29.23,9,1,9,0.00
2013-9-29,69.3,62.8,59.5,62.8,59.5,56.1,100,89,80,29.23,29.15,14,1,14,0.04
2013-9-30,79.2,66.2,60.6,71.3,62.6,57.2,100,89,77,29.21,29.12,10,2,10,0.08
2013-10-1,83.3,68.5,59.4,74.6,63.7,57.6,100,85,74,29.26,29.18,10,1,11,0.00
2013-10-2,83.5,69.3,61.5,74.8,65.6,59.4,100,89,76,29.29,29.21,5,0,5,0.00
2013-10-3,87.6,72.6,67.6,79.1,69.5,64.6,100,91,76,29.26,29.18,10,1,10,0.20
2013-10-4,89.4,75.7,65.1,80.4,70.0,64.0,100,83,75,29.26,29.21,9,1,9,0.20
2013-10-5,83.1,72.0,66.4,74.8,68.4,65.3,100,89,76,29.23,29.12,10,2,12,0.35
2013-10-6,72.3,62.8,52.0,68.6,62.1,48.8,100,98,84,29.12,28.88,16,2,16,2.48
2013-10-7,65.7,53.2,44.8,58.6,48.8,44.0,98,85,78,29.26,29.03,13,3,13,0.00
2013-10-8,74.8,55.8,40.6,66.8,51.5,40.6,100,86,76,29.41,29.26,6,1,6,0.00
2013-10-9,82.2,60.5,45.3,72.6,55.3,43.8,99,84,74,29.38,29.29,8,0,8,0.00
2013-10-10,83.1,58.1,43.0,74.0,52.9,42.4,99,83,74,29.32,29.23,5,0,5,0.00
2013-10-11,88.5,64.1,46.6,78.8,57.6,43.3,96,80,73,29.26,29.18,4,0,4,0.00
2013-10-12,85.3,68.0,51.4,75.7,62.2,49.7,100,83,73,29.23,29.21,4,0,5,0.00
2013-10-13,68.9,59.7,55.2,61.4,53.2,49.0,80,79,77,29.44,29.38,7,1,7,0.00
2013-10-14,77.5,59.5,46.8,68.7,53.2,42.4,87,80,75,29.47,29.32,8,1,8,0.00
2013-10-15,74.7,61.0,53.1,67.3,58.5,50.9,100,92,78,29.32,29.12,8,1,8,0.08
2013-10-16,70.2,59.6,47.8,63.3,55.7,45.0,100,87,77,29.09,29.06,8,0,8,0.04
2013-10-17,56.3,47.8,41.2,51.9,45.5,40.7,100,92,80,29.15,29.03,10,1,10,0.08
2013-10-18,70.2,55.1,43.2,62.6,50.7,42.9,100,86,77,29.21,29.09,13,2,13,0.00
2013-10-19,54.3,45.6,41.0,48.3,42.7,37.9,100,90,80,29.15,29.00,9,1,9,0.12
2013-10-20,65.1,53.2,38.8,58.1,47.7,36.2,93,82,78,29.18,29.12,14,4,14,0.00
2013-10-21,67.1,52.8,44.2,59.7,47.3,39.4,98,81,77,29.18,29.06,12,2,12,0.00
2013-10-22,59.2,48.1,36.5,52.7,43.0,33.0,99,82,79,29.21,28.97,6,0,7,0.04
2013-10-23,46.4,40.8,35.2,41.5,37.7,32.8,100,89,82,29.18,28.88,6,1,6,0.08
2013-10-24,44.8,38.5,33.3,39.6,35.8,31.7,100,90,82,29.41,29.18,12,2,12,0.08
2013-10-25,52.9,38.4,28.9,47.2,34.9,27.7,100,88,81,29.56,29.41,8,1,8,0.00
2013-10-26,56.1,42.7,31.8,50.0,37.8,27.8,85,83,80,29.47,29.09,11,2,11,0.00
2013-10-27,62.6,46.9,33.8,55.8,42.0,31.4,93,83,78,29.26,29.18,6,0,6,0.00
2013-10-28,69.6,48.6,33.8,61.9,43.7,31.5,98,84,77,29.38,29.23,8,0,8,0.00
2013-10-29,57.6,49.6,36.1,51.1,44.5,32.7,92,83,79,29.50,29.32,4,0,5,0.00
2013-10-30,63.5,58.1,51.6,63.5,57.8,49.5,100,99,92,29.32,29.18,9,0,9,0.16
2013-10-31,64.6,62.4,55.6,63.9,58.9,55.0,100,89,83,29.18,28.56,15,6,18,1.26
2013-11-1,66.0,56.6,48.0,59.0,51.8,46.0,100,84,78,28.88,28.64,15,4,15,0.04
2013-11-2,57.7,48.7,41.5,51.3,43.6,37.8,88,83,79,29.23,28.88,8,2,8,0.00
2013-11-3,64.2,45.2,37.6,57.2,41.4,34.4,100,87,78,29.50,29.23,6,0,7,0.00
2013-11-4,60.4,48.8,37.9,53.9,43.6,34.1,90,82,79,29.53,29.44,10,1,10,0.00
2013-11-5,63.5,54.8,49.5,56.5,49.1,44.1,87,81,78,29.53,29.35,8,1,8,0.00
2013-11-6,66.9,56.6,43.2,59.7,52.7,43.2,100,87,77,29.35,29.12,15,4,15,0.20
2013-11-7,51.4,42.9,37.0,45.8,39.7,32.1,100,89,81,29.41,29.18,13,2,13,0.04
2013-11-8,55.9,40.7,29.5,49.9,36.7,28.6,100,86,80,29.50,29.35,9,1,9,0.04
2013-11-9,62.6,50.5,37.9,55.8,44.9,32.6,84,81,78,29.38,29.18,20,6,20,0.04
2013-11-10,52.9,44.3,33.6,47.0,39.3,29.6,85,82,81,29.47,29.26,10,3,13,0.04
2013-11-11,58.8,43.9,30.9,52.3,39.5,27.1,100,85,79,29.44,29.23,13,2,13,0.08
2013-11-12,36.1,29.3,23.9,34.3,26.2,21.9,100,88,82,29.74,29.38,10,3,14,0.04
2013-11-13,43.3,30.7,19.8,38.5,27.4,18.8,98,88,80,29.74,29.53,11,2,11,0.04
2013-11-14,56.8,42.3,30.7,50.6,37.2,26.2,83,82,80,29.53,29.29,14,5,14,0.08
2013-11-15,52.7,46.3,39.4,47.0,41.2,34.0,84,82,81,29.32,29.23,11,4,11,0.04
2013-11-16,60.8,53.1,46.9,55.9,49.7,42.4,98,89,84,29.29,29.06,13,4,15,0.04
2013-11-17,64.8,59.4,51.4,62.9,56.6,45.8,100,91,80,29.09,28.70,27,7,27,0.98
2013-11-18,54.1,46.2,36.5,48.1,41.2,32.0,86,82,80,29.32,28.97,17,4,17,0.04
2013-11-19,45.1,34.9,28.2,40.0,30.9,26.0,92,85,82,29.47,29.32,10,1,10,0.04
2013-11-20,55.2,39.2,26.2,49.2,34.7,23.3,91,84,80,29.44,29.35,8,1,9,0.04
2013-11-21,59.2,48.9,41.7,52.7,43.8,37.0,88,83,79,29.44,29.32,10,2,11,0.04
2013-11-22,54.1,47.9,36.9,53.2,45.8,32.5,100,92,83,29.50,29.29,13,3,13,0.12
2013-11-23,40.3,30.8,21.0,34.9,27.1,17.0,100,86,81,29.68,29.47,12,4,12,0.00
2013-11-24,32.4,21.0,14.9,27.8,17.1,11.3,86,85,83,29.80,29.62,13,1,13,0.00
2013-11-25,38.8,29.7,18.7,33.5,25.3,14.9,91,83,81,29.62,29.32,12,3,12,0.00
2013-11-26,35.6,32.8,31.1,33.8,30.5,27.1,100,91,85,29.32,29.06,9,1,9,0.00
2013-11-27,32.5,26.8,21.0,29.4,23.0,17.2,91,85,83,29.41,29.06,11,4,11,0.00
2013-11-28,37.0,26.6,17.8,32.1,22.3,14.0,85,84,82,29.56,29.38,14,3,14,0.00
2013-11-29,45.5,30.1,20.1,40.3,25.8,16.2,87,84,81,29.74,29.53,6,0,6,0.00
2013-11-30,54.3,38.7,26.1,48.3,34.1,22.5,86,84,80,29.62,29.29,12,2,12,0.00
2013-12-1,53.1,46.0,40.6,47.4,40.9,35.9,83,82,81,29.29,29.12,11,3,11,0.00
2013-12-2,57.2,44.5,35.8,50.8,40.0,33.1,91,84,79,29.12,28.94,6,0,6,0.00
2013-12-3,54.1,44.7,34.3,49.1,42.5,34.3,100,92,83,29.03,28.94,9,0,9,0.00
2013-12-4,62.4,54.3,46.8,57.5,51.3,44.3,99,90,84,29.03,28.85,13,3,13,0.00
2013-12-5,64.2,47.3,30.9,61.0,44.8,29.3,100,91,83,29.29,28.94,13,3,13,0.20
2013-12-6,31.1,27.5,25.3,30.6,26.9,24.4,100,98,92,29.50,29.26,4,0,4,0.04
2013-12-7,31.1,22.4,15.8,26.5,20.1,13.6,99,91,83,29.71,29.50,0,0,0,0.00
2013-12-8,32.5,24.9,18.1,32.5,22.8,15.2,100,92,86,29.62,29.15,0,0,0,0.00
2013-12-9,32.7,29.1,22.6,32.7,27.5,19.4,100,94,85,29.35,29.12,0,0,0,0.00
2013-12-10,31.3,23.3,19.2,26.7,20.1,15.8,95,88,83,29.47,29.26,0,0,0,0.00
2013-12-11,38.1,24.1,13.5,32.8,20.5,10.7,95,86,81,29.62,29.38,13,2,13,0.00
2013-12-12,27.0,17.2,3.7,22.5,13.6,0.7,87,86,83,29.65,29.44,12,3,12,0.00
2013-12-13,42.4,29.7,18.7,37.7,25.4,14.9,91,84,81,29.44,29.26,13,3,14,0.00
2013-12-14,38.3,34.7,31.1,38.3,34.5,29.7,100,99,91,29.29,28.85,11,2,11,0.63
2013-12-15,32.9,27.8,26.1,30.4,24.9,23.0,100,89,83,29.23,29.03,0,0,0,0.00
2013-12-16,35.4,31.1,26.2,34.0,29.4,23.0,100,94,86,29.23,29.12,6,0,6,0.00
2013-12-17,35.4,30.6,27.0,33.3,27.7,24.6,100,89,85,29.29,29.12,11,2,13,0.00
2013-12-18,39.9,30.6,22.1,34.6,26.7,18.8,94,85,81,29.38,29.18,15,4,15,0.00
2013-12-19,55.2,47.0,36.0,49.2,41.6,31.0,83,81,80,29.23,29.12,14,5,15,0.00
2013-12-20,60.1,55.4,50.4,56.5,50.6,44.8,89,84,80,29.12,29.00,19,6,20,0.00
2013-12-21,67.3,61.0,58.1,62.8,59.7,56.2,100,96,85,29.00,28.64,23,6,25,1.77
2013-12-22,61.3,52.2,37.0,61.3,49.8,35.7,100,92,80,29.18,28.70,18,5,22,0.35
2013-12-23,37.0,30.5,23.4,36.0,27.4,20.1,100,88,85,29.50,29.18,10,1,10,0.35
2013-12-24,25.9,17.8,12.2,21.7,14.5,9.1,94,87,84,29.65,29.47,5,0,6,0.35
2013-12-25,33.4,26.8,16.7,28.8,22.6,13.8,88,84,83,29.59,29.32,13,2,13,0.35
2013-12-26,42.8,34.0,29.5,38.0,29.5,25.5,85,84,81,29.47,29.29,14,3,14,0.35
2013-12-27,50.7,38.7,30.0,45.1,34.1,26.1,85,84,81,29.53,29.41,11,3,11,0.35
2013-12-28,55.4,43.2,35.1,49.3,38.4,31.0,85,83,80,29.41,29.15,12,4,12,0.35
2013-12-29,46.6,38.3,31.1,42.9,36.0,29.8,100,92,83,29.18,28.97,15,2,15,0.35
2013-12-30,31.1,26.1,20.7,29.8,22.4,16.9,95,86,83,29.38,29.18,8,2,10,0.35
2013-12-31,35.1,27.6,21.6,30.1,23.3,18.3,87,84,82,29.50,29.29,12,4,13,0.35
2014-1-1,48.7,35.0,23.9,43.2,30.8,21.1,92,84,81,29.41,29.15,10,2,10,0.35
2014-1-2,36.7,23.4,8.4,32.3,21.4,6.4,100,92,82,29.38,28.97,11,2,12,0.35